Time;durP1;ratioP1;P1;durP2;ratioP2;P2;SDS_P1;SDS_P2;PMS_P1;PMS_P2;Temp;Humidity;BMP_temperature;BMP_pressure;BME280_temperature;BME280_humidity;BME280_pressure;Samples;Min_cycle;Max_cycle;Signal;HPM_P1;HPM_P2
2021/05/19 00:01:35;;;;;;;12.55;9.75;;;9.40;1.00;;;;;;5016851;28;20243;-82
2021/05/19 00:04:02;;;;;;;14.35;10.88;;;9.40;1.00;;;;;;5021921;28;20321;-83
2021/05/19 00:06:28;;;;;;;13.35;10.90;;;9.40;1.00;;;;;;5018672;28;20777;-83
2021/05/19 00:08:54;;;;;;;11.75;10.27;;;9.30;1.00;;;;;;5018569;28;20234;-83
2021/05/19 00:11:21;;;;;;;12.95;10.85;;;9.30;1.00;;;;;;5023215;28;20266;-83
2021/05/19 00:13:47;;;;;;;12.00;10.82;;;9.30;1.00;;;;;;5021454;28;20253;-83
2021/05/19 00:16:15;;;;;;;11.85;10.65;;;9.30;1.00;;;;;;5020259;28;20239;-84
2021/05/19 00:18:41;;;;;;;11.88;10.43;;;9.30;1.00;;;;;;5023593;28;20234;-82
2021/05/19 00:21:08;;;;;;;13.25;11.35;;;9.30;1.00;;;;;;5018122;28;20682;-82
2021/05/19 00:23:35;;;;;;;12.75;10.88;;;9.30;1.00;;;;;;5027231;28;20218;-83
2021/05/19 00:26:02;;;;;;;14.15;10.20;;;9.30;1.00;;;;;;5002390;28;20306;-83
2021/05/19 00:28:35;;;;;;;13.10;11.55;;;9.30;1.00;;;;;;5017835;28;20309;-82
2021/05/19 00:31:04;;;;;;;11.10;10.05;;;9.30;1.00;;;;;;5003080;28;20260;-83
2021/05/19 00:33:32;;;;;;;12.48;10.88;;;9.30;1.00;;;;;;5023963;28;20226;-84
2021/05/19 00:35:58;;;;;;;13.68;10.70;;;9.20;1.00;;;;;;5023380;28;20258;-82
2021/05/19 00:38:24;;;;;;;11.90;10.60;;;9.20;1.00;;;;;;5018970;28;20285;-83
2021/05/19 00:40:51;;;;;;;14.65;10.63;;;9.10;1.00;;;;;;5023311;28;21324;-82
2021/05/19 00:43:17;;;;;;;13.10;10.50;;;9.10;1.00;;;;;;5022092;28;20208;-84
2021/05/19 00:45:43;;;;;;;13.07;11.15;;;9.10;1.00;;;;;;5023301;28;20234;-83
2021/05/19 00:48:11;;;;;;;13.85;11.32;;;9.10;1.00;;;;;;5021374;28;20397;-83
2021/05/19 00:50:39;;;;;;;12.50;11.30;;;9.10;1.00;;;;;;5012934;28;20228;-82
2021/05/19 00:53:07;;;;;;;10.65;9.60;;;9.10;1.00;;;;;;5011716;28;20701;-84
2021/05/19 00:55:33;;;;;;;13.13;11.27;;;9.20;1.00;;;;;;5009012;28;20231;-83
2021/05/19 00:58:00;;;;;;;11.13;10.00;;;9.20;1.00;;;;;;5008450;28;20227;-83
2021/05/19 01:00:27;;;;;;;13.05;10.45;;;9.20;1.00;;;;;;5011115;28;20219;-83
2021/05/19 01:02:54;;;;;;;12.13;10.95;;;9.20;1.00;;;;;;5011417;28;20733;-82
2021/05/19 01:05:26;;;;;;;13.30;11.15;;;9.10;1.00;;;;;;5026085;28;20243;-83
2021/05/19 01:10:40;;;;;;;12.45;11.15;;;9.00;1.00;;;;;;5025189;28;20694;-82
2021/05/19 01:13:07;;;;;;;12.10;10.80;;;9.00;1.00;;;;;;5003910;28;20832;-82
2021/05/19 01:15:34;;;;;;;11.80;10.65;;;9.00;1.00;;;;;;5026611;28;20260;-82
2021/05/19 01:18:01;;;;;;;12.07;10.70;;;9.00;1.00;;;;;;5035177;28;20265;-83
2021/05/19 01:20:28;;;;;;;12.23;11.02;;;9.00;1.00;;;;;;5032185;28;20266;-83
2021/05/19 01:22:55;;;;;;;12.23;11.13;;;9.00;1.00;;;;;;5042549;28;20220;-82
2021/05/19 01:25:23;;;;;;;14.95;12.95;;;9.10;1.00;;;;;;5043367;28;20235;-84
2021/05/19 01:27:52;;;;;;;13.70;11.85;;;9.20;1.00;;;;;;5039277;28;20241;-84
2021/05/19 01:30:20;;;;;;;14.15;12.63;;;9.30;1.00;;;;;;5039088;28;20241;-83
2021/05/19 01:32:46;;;;;;;13.18;11.77;;;9.30;1.00;;;;;;5042778;28;20278;-84
2021/05/19 01:35:14;;;;;;;13.35;11.95;;;9.40;1.00;;;;;;5042307;28;20285;-83
2021/05/19 01:37:42;;;;;;;13.05;11.52;;;9.40;1.00;;;;;;5046889;28;20256;-83
2021/05/19 01:40:12;;;;;;;13.32;11.82;;;9.60;1.00;;;;;;5037275;28;20243;-82
2021/05/19 01:42:39;;;;;;;13.10;11.80;;;9.60;1.00;;;;;;5034984;28;20273;-82
2021/05/19 01:45:07;;;;;;;12.40;11.10;;;9.70;1.00;;;;;;5031832;28;20290;-83
2021/05/19 01:47:40;;;;;;;15.55;11.73;;;9.80;1.00;;;;;;5036092;28;20230;-83
2021/05/19 01:50:08;;;;;;;13.23;12.00;;;9.80;1.00;;;;;;5037961;28;20228;-83
2021/05/19 01:52:35;;;;;;;13.98;12.52;;;9.90;1.00;;;;;;5044782;28;20613;-83
2021/05/19 01:55:02;;;;;;;14.55;11.73;;;9.90;1.00;;;;;;5040750;28;20257;-83
2021/05/19 01:57:30;;;;;;;14.50;13.13;;;9.90;1.00;;;;;;5038677;28;20219;-84
2021/05/19 01:59:56;;;;;;;17.30;14.00;;;10.00;1.00;;;;;;5039939;28;20409;-81
2021/05/19 02:02:23;;;;;;;15.75;12.25;;;10.10;1.00;;;;;;5041527;28;20417;-83
2021/05/19 02:04:50;;;;;;;13.90;11.57;;;10.20;1.00;;;;;;5040895;28;20232;-82
2021/05/19 02:07:16;;;;;;;13.63;12.33;;;10.20;1.00;;;;;;5031822;28;20458;-83
2021/05/19 02:09:42;;;;;;;12.23;11.05;;;10.30;1.00;;;;;;5036169;28;23395;-83
2021/05/19 02:12:10;;;;;;;13.23;11.85;;;10.30;1.00;;;;;;5036355;28;20248;-83
2021/05/19 02:14:37;;;;;;;13.20;11.80;;;10.40;1.00;;;;;;5043871;28;20253;-83
2021/05/19 02:17:04;;;;;;;13.00;11.70;;;10.40;1.00;;;;;;5022808;28;20226;-83
2021/05/19 02:19:30;;;;;;;12.33;11.07;;;10.40;1.00;;;;;;5038525;28;20435;-84
2021/05/19 02:21:56;;;;;;;12.40;11.17;;;10.50;1.00;;;;;;5034899;28;20426;-83
2021/05/19 02:24:24;;;;;;;12.40;11.10;;;10.50;1.00;;;;;;5035619;28;20450;-83
2021/05/19 02:26:50;;;;;;;13.33;11.77;;;10.50;1.00;;;;;;5029029;28;21273;-83
2021/05/19 02:29:17;;;;;;;13.03;10.30;;;10.60;1.00;;;;;;5019796;28;20467;-82
2021/05/19 02:31:45;;;;;;;11.43;10.00;;;10.70;1.00;;;;;;5018454;28;20481;-82
2021/05/19 02:34:13;;;;;;;13.40;10.43;;;10.80;1.00;;;;;;5015712;28;20459;-82
2021/05/19 02:36:40;;;;;;;13.10;9.37;;;10.80;1.00;;;;;;5000587;28;20442;-82
2021/05/19 02:39:09;;;;;;;9.37;8.47;;;10.90;1.00;;;;;;5016481;28;20955;-82
2021/05/19 02:41:36;;;;;;;9.90;8.73;;;10.90;1.00;;;;;;5018941;28;20897;-82
2021/05/19 02:44:03;;;;;;;10.87;9.63;;;11.00;1.00;;;;;;5029646;28;20232;-82
2021/05/19 02:46:30;;;;;;;11.13;8.23;;;11.10;1.00;;;;;;5034759;28;20543;-82
2021/05/19 02:49:01;;;;;;;13.53;10.87;;;11.10;1.00;;;;;;5032795;28;20281;-83
2021/05/19 02:51:29;;;;;;;9.57;8.63;;;11.20;1.00;;;;;;5029013;28;20483;-83
2021/05/19 02:53:56;;;;;;;10.15;8.50;;;11.20;1.00;;;;;;5027469;28;20451;-83
2021/05/19 02:56:22;;;;;;;11.70;10.37;;;11.20;1.00;;;;;;5019749;28;20913;-83
2021/05/19 02:58:48;;;;;;;8.20;7.40;;;11.30;1.00;;;;;;5026685;28;20456;-83
2021/05/19 03:01:15;;;;;;;8.70;7.90;;;11.30;1.00;;;;;;5028002;28;20585;-84
2021/05/19 03:03:41;;;;;;;9.10;8.20;;;11.30;1.00;;;;;;5013008;28;20426;-82
2021/05/19 03:06:09;;;;;;;9.33;8.43;;;11.30;1.00;;;;;;5016052;28;20567;-81
2021/05/19 03:08:35;;;;;;;8.27;7.57;;;11.40;1.00;;;;;;5015356;28;20459;-82
2021/05/19 03:11:01;;;;;;;9.60;8.20;;;11.40;1.00;;;;;;5008623;28;21224;-82
2021/05/19 03:13:27;;;;;;;11.13;8.47;;;11.40;1.00;;;;;;5009331;28;21275;-83
2021/05/19 03:15:53;;;;;;;9.73;8.73;;;11.40;1.00;;;;;;5011939;28;20899;-82
2021/05/19 03:18:19;;;;;;;10.60;9.00;;;11.40;1.00;;;;;;5012637;28;20455;-82
2021/05/19 03:20:46;;;;;;;10.03;8.80;;;11.50;1.00;;;;;;5012752;28;20473;-82
2021/05/19 03:23:13;;;;;;;10.52;9.48;;;11.50;1.00;;;;;;5013912;28;20874;-83
2021/05/19 03:25:40;;;;;;;12.40;8.97;;;11.50;1.00;;;;;;5018127;28;20529;-82
2021/05/19 03:28:06;;;;;;;9.68;8.32;;;11.50;1.00;;;;;;5010237;28;20896;-82
2021/05/19 03:30:32;;;;;;;10.38;9.30;;;11.50;1.00;;;;;;5013659;28;20469;-82
2021/05/19 03:32:58;;;;;;;9.27;8.35;;;11.50;1.00;;;;;;5019414;28;22122;-83
2021/05/19 03:35:25;;;;;;;9.50;8.50;;;11.50;1.00;;;;;;5010832;28;20226;-82
2021/05/19 03:37:52;;;;;;;12.37;11.03;;;11.60;1.00;;;;;;5017187;28;20506;-83
2021/05/19 03:40:22;;;;;;;11.73;9.73;;;11.60;1.00;;;;;;5015468;28;20499;-83
2021/05/19 03:42:48;;;;;;;9.27;8.37;;;11.60;1.00;;;;;;5016736;28;20874;-82
2021/05/19 03:45:18;;;;;;;10.77;8.57;;;11.60;1.00;;;;;;5015662;28;20482;-82
2021/05/19 03:47:45;;;;;;;16.10;9.67;;;11.70;1.00;;;;;;4998444;28;20580;-83
2021/05/19 03:50:12;;;;;;;10.13;9.00;;;11.70;1.00;;;;;;5014999;28;20469;-82
2021/05/19 03:52:39;;;;;;;9.40;8.50;;;11.70;1.00;;;;;;5021941;28;20432;-82
2021/05/19 03:55:08;;;;;;;10.97;8.50;;;11.70;1.00;;;;;;5014153;28;20496;-82
2021/05/19 03:57:35;;;;;;;10.47;9.43;;;11.70;1.00;;;;;;5001721;28;20532;-82
2021/05/19 04:00:05;;;;;;;10.03;9.00;;;11.70;1.00;;;;;;5014765;28;22652;-83
2021/05/19 04:02:31;;;;;;;11.87;10.03;;;11.70;1.00;;;;;;5019057;28;20429;-84
2021/05/19 04:04:57;;;;;;;10.23;9.33;;;11.80;1.00;;;;;;4999921;28;20481;-81
2021/05/19 04:07:24;;;;;;;10.67;8.77;;;11.80;1.00;;;;;;5017530;28;20453;-82
2021/05/19 04:09:51;;;;;;;13.23;11.13;;;11.90;1.00;;;;;;5018182;28;20523;-82
2021/05/19 04:12:17;;;;;;;8.40;7.60;;;11.90;1.00;;;;;;5019288;28;20935;-83
2021/05/19 04:14:44;;;;;;;8.83;8.03;;;11.90;1.00;;;;;;5020732;28;20612;-82
2021/05/19 04:17:10;;;;;;;10.60;9.60;;;12.00;1.00;;;;;;5015627;28;20472;-82
2021/05/19 04:19:36;;;;;;;12.97;11.67;;;12.10;1.00;;;;;;5012027;28;20431;-83
2021/05/19 04:22:03;;;;;;;12.03;10.80;;;12.20;1.00;;;;;;5018754;28;20562;-83
2021/05/19 04:24:29;;;;;;;12.93;9.80;;;12.20;1.00;;;;;;5020631;28;20472;-83
2021/05/19 04:26:56;;;;;;;12.43;11.10;;;12.20;1.00;;;;;;5015068;28;21128;-84
2021/05/19 04:29:22;;;;;;;11.50;9.60;;;12.20;1.00;;;;;;5017478;28;20461;-83
2021/05/19 04:31:49;;;;;;;12.13;10.93;;;12.30;1.00;;;;;;5013674;28;20981;-83
2021/05/19 04:34:15;;;;;;;14.17;11.60;;;12.30;1.00;;;;;;4999884;28;20444;-83
2021/05/19 04:36:42;;;;;;;10.30;9.30;;;12.30;1.00;;;;;;5011692;28;20454;-83
2021/05/19 04:39:08;;;;;;;9.63;8.73;;;12.30;1.00;;;;;;5018924;28;20462;-82
2021/05/19 04:41:35;;;;;;;12.00;10.90;;;12.30;1.00;;;;;;5017247;28;20543;-83
2021/05/19 04:44:01;;;;;;;11.73;10.60;;;12.30;1.00;;;;;;5015512;28;20413;-83
2021/05/19 04:46:28;;;;;;;11.80;10.57;;;12.30;1.00;;;;;;5014427;28;21027;-83
2021/05/19 04:49:01;;;;;;;10.70;9.70;;;12.20;1.00;;;;;;5024251;28;20458;-83
2021/05/19 04:51:27;;;;;;;10.80;9.70;;;12.10;1.00;;;;;;5034732;28;20452;-83
2021/05/19 04:53:54;;;;;;;11.97;10.63;;;12.00;1.00;;;;;;5035226;28;20435;-83
2021/05/19 04:56:21;;;;;;;10.57;9.47;;;11.90;1.00;;;;;;5035865;28;20507;-84
2021/05/19 04:58:47;;;;;;;10.80;9.80;;;11.90;1.00;;;;;;5018873;28;20478;-82
2021/05/19 05:01:14;;;;;;;11.43;10.20;;;11.80;1.00;;;;;;5019803;28;20529;-82
2021/05/19 05:03:40;;;;;;;11.73;10.57;;;11.80;1.00;;;;;;5016904;28;21367;-83
2021/05/19 05:06:07;;;;;;;14.10;12.60;;;11.80;1.00;;;;;;5017709;28;20480;-82
2021/05/19 05:08:33;;;;;;;14.07;10.77;;;11.80;1.00;;;;;;5004483;28;20501;-82
2021/05/19 05:10:59;;;;;;;12.10;10.30;;;11.90;1.00;;;;;;5017046;28;20576;-82
2021/05/19 05:13:27;;;;;;;12.50;11.20;;;11.90;1.00;;;;;;5016532;28;20553;-83
2021/05/19 05:15:53;;;;;;;12.20;11.00;;;11.90;1.00;;;;;;5022643;28;20453;-83
2021/05/19 05:18:20;;;;;;;12.37;11.07;;;12.00;1.00;;;;;;5008029;28;20456;-82
2021/05/19 05:20:46;;;;;;;13.70;11.30;;;12.00;1.00;;;;;;5021450;28;20681;-82
2021/05/19 05:23:13;;;;;;;11.43;10.33;;;12.10;1.00;;;;;;5020058;28;21503;-83
2021/05/19 05:25:39;;;;;;;12.17;10.97;;;12.10;1.00;;;;;;5020997;28;20463;-82
2021/05/19 05:28:05;;;;;;;14.50;13.03;;;12.20;1.00;;;;;;5020363;28;20453;-88
2021/05/19 05:30:32;;;;;;;12.80;11.63;;;12.20;1.00;;;;;;5014934;28;20442;-82
2021/05/19 05:32:58;;;;;;;12.60;11.00;;;12.20;1.00;;;;;;5019674;28;20513;-84
2021/05/19 05:35:25;;;;;;;12.97;11.67;;;12.30;1.00;;;;;;5030269;28;20409;-86
2021/05/19 05:37:51;;;;;;;12.70;11.40;;;12.30;1.00;;;;;;5034112;28;20460;-82
2021/05/19 05:40:19;;;;;;;15.60;11.70;;;12.40;1.00;;;;;;5015550;28;20493;-84
2021/05/19 05:42:47;;;;;;;11.77;10.60;;;12.40;1.00;;;;;;5017390;28;20447;-83
2021/05/19 05:45:14;;;;;;;13.47;11.17;;;12.40;1.00;;;;;;5012800;28;20474;-82
2021/05/19 05:47:40;;;;;;;12.10;10.80;;;12.50;1.00;;;;;;5000195;28;20468;-81
2021/05/19 05:50:08;;;;;;;12.20;10.10;;;12.60;1.00;;;;;;5015487;28;20519;-81
2021/05/19 05:52:34;;;;;;;10.57;9.57;;;12.60;1.00;;;;;;5016976;28;20637;-82
2021/05/19 05:55:01;;;;;;;10.87;9.90;;;12.70;1.00;;;;;;5009633;28;20504;-83
2021/05/19 05:57:28;;;;;;;11.53;9.93;;;12.80;1.00;;;;;;5013901;28;20556;-83
2021/05/19 05:59:54;;;;;;;10.80;9.70;;;12.70;1.00;;;;;;5014068;28;20509;-85
2021/05/19 06:02:21;;;;;;;9.33;8.43;;;12.70;1.00;;;;;;5015364;28;21013;-83
2021/05/19 06:04:47;;;;;;;13.20;10.50;;;12.70;1.00;;;;;;5014387;28;20476;-84
2021/05/19 06:07:13;;;;;;;12.67;11.00;;;12.70;1.00;;;;;;5014412;28;20465;-82
2021/05/19 06:09:42;;;;;;;12.87;9.43;;;12.70;1.00;;;;;;5016266;28;20525;-83
2021/05/19 06:12:08;;;;;;;11.33;10.13;;;12.80;1.00;;;;;;5019296;28;21331;-84
2021/05/19 06:14:35;;;;;;;10.80;9.70;;;12.90;1.00;;;;;;5017897;28;20442;-83
2021/05/19 06:17:03;;;;;;;13.20;9.80;;;13.00;1.00;;;;;;5017244;28;21094;-85
2021/05/19 06:19:31;;;;;;;10.80;9.70;;;13.00;1.00;;;;;;5017324;28;20469;-82
2021/05/19 06:21:57;;;;;;;8.97;8.17;;;13.00;1.00;;;;;;5017876;28;20517;-84
2021/05/19 06:24:24;;;;;;;10.93;9.67;;;13.00;1.00;;;;;;5024716;28;20442;-83
2021/05/19 06:26:50;;;;;;;10.33;9.27;;;13.10;1.00;;;;;;5018178;28;20458;-83
2021/05/19 06:29:16;;;;;;;10.10;9.20;;;13.10;1.00;;;;;;5003592;28;20450;-83
2021/05/19 06:31:43;;;;;;;9.40;8.50;;;13.20;1.00;;;;;;5016222;28;20461;-83
2021/05/19 06:34:09;;;;;;;10.20;9.20;;;13.30;1.00;;;;;;5020463;28;20858;-81
2021/05/19 06:36:38;;;;;;;9.97;8.53;;;13.50;1.00;;;;;;5020164;28;20457;-80
2021/05/19 06:39:05;;;;;;;13.50;10.20;;;13.50;1.00;;;;;;5041584;28;21428;-80
2021/05/19 06:41:31;;;;;;;10.60;9.50;;;13.60;1.00;;;;;;5027581;28;20508;-80
2021/05/19 06:43:57;;;;;;;8.50;7.70;;;13.70;1.00;;;;;;5025198;28;20495;-81
2021/05/19 06:46:27;;;;;;;16.37;14.83;;;13.80;1.00;;;;;;5039575;28;20494;-80
2021/05/19 06:48:54;;;;;;;9.67;8.47;;;13.90;1.00;;;;;;5045672;28;20424;-84
2021/05/19 06:51:20;;;;;;;7.93;7.23;;;14.00;1.00;;;;;;5046385;28;20484;-84
2021/05/19 06:53:46;;;;;;;9.47;8.67;;;13.90;1.00;;;;;;5021941;28;21296;-77
2021/05/19 06:56:14;;;;;;;7.30;6.60;;;14.00;1.00;;;;;;5013799;28;20580;-78
2021/05/19 06:58:41;;;;;;;7.60;6.80;;;14.10;1.00;;;;;;5015553;28;20426;-77
2021/05/19 07:01:07;;;;;;;7.10;6.40;;;14.20;1.00;;;;;;4996729;28;20477;-78
2021/05/19 07:03:33;;;;;;;8.83;6.77;;;14.20;1.00;;;;;;5011920;28;20812;-83
2021/05/19 07:06:00;;;;;;;8.17;6.33;;;14.20;1.00;;;;;;5021907;28;20433;-85
2021/05/19 07:08:26;;;;;;;7.30;6.30;;;14.20;1.00;;;;;;5020880;28;20473;-83
2021/05/19 07:10:53;;;;;;;7.10;6.37;;;14.30;1.00;;;;;;5025523;28;20517;-84
2021/05/19 07:13:19;;;;;;;6.70;6.10;;;14.40;1.00;;;;;;5021513;28;20445;-85
2021/05/19 07:15:51;;;;;;;5.30;4.80;;;14.50;1.00;;;;;;5010943;28;20461;-84
2021/05/19 07:18:18;;;;;;;5.63;5.13;;;14.50;1.00;;;;;;5020222;28;20448;-85
2021/05/19 07:20:44;;;;;;;5.23;4.53;;;14.40;1.00;;;;;;5023019;28;20450;-83
2021/05/19 07:23:12;;;;;;;5.10;4.23;;;14.30;1.00;;;;;;5019551;28;20540;-84
2021/05/19 07:25:38;;;;;;;4.73;4.30;;;14.40;1.00;;;;;;5021736;28;20469;-85
2021/05/19 07:28:05;;;;;;;4.60;4.20;;;14.50;1.00;;;;;;5026160;28;20969;-85
2021/05/19 07:30:32;;;;;;;4.40;4.03;;;14.50;1.00;;;;;;5019972;28;20538;-84
2021/05/19 07:32:59;;;;;;;4.33;3.90;;;14.60;1.00;;;;;;5024516;28;20449;-84
2021/05/19 07:35:26;;;;;;;4.80;4.30;;;14.90;1.00;;;;;;5025553;28;21191;-85
2021/05/19 07:37:52;;;;;;;5.23;4.30;;;15.10;1.00;;;;;;5021899;28;20449;-86
2021/05/19 07:40:21;;;;;;;3.30;3.00;;;15.40;1.00;;;;;;5026311;28;20493;-85
2021/05/19 07:42:47;;;;;;;3.30;3.00;;;15.60;1.00;;;;;;5002772;28;21831;-87
2021/05/19 07:45:14;;;;;;;3.50;3.13;;;15.70;1.00;;;;;;5019604;28;20521;-82
2021/05/19 07:47:40;;;;;;;4.57;3.40;;;15.60;1.00;;;;;;5021465;28;20460;-84
2021/05/19 07:50:08;;;;;;;3.10;2.80;;;15.70;1.00;;;;;;5014693;28;20454;-83
2021/05/19 07:52:35;;;;;;;2.83;2.63;;;15.60;1.00;;;;;;5019366;28;20445;-83
2021/05/19 07:55:05;;;;;;;3.47;2.97;;;15.60;1.00;;;;;;5018044;28;22145;-82
2021/05/19 07:57:43;;;;;;;3.70;2.60;;;15.60;1.00;;;;;;5024343;28;20484;-84
2021/05/19 08:00:14;;;;;;;3.00;2.70;;;15.80;1.00;;;;;;5024666;28;20516;-82
2021/05/19 08:02:41;;;;;;;3.17;2.97;;;15.80;1.00;;;;;;5010386;28;20461;-84
2021/05/19 08:05:09;;;;;;;4.37;2.83;;;16.00;1.00;;;;;;5021975;28;20462;-84
2021/05/19 08:07:36;;;;;;;3.33;3.00;;;16.10;1.00;;;;;;5018053;28;20495;-82
2021/05/19 08:10:04;;;;;;;3.97;3.00;;;16.30;1.00;;;;;;5014160;28;20442;-82
2021/05/19 08:12:30;;;;;;;3.43;3.13;;;16.30;1.00;;;;;;5005222;28;20447;-83
2021/05/19 08:15:00;;;;;;;3.73;3.40;;;16.40;1.00;;;;;;5015007;28;20466;-84
2021/05/19 08:17:26;;;;;;;2.90;2.70;;;16.70;1.00;;;;;;5004019;28;20547;-83
2021/05/19 08:19:52;;;;;;;3.83;3.40;;;16.90;1.00;;;;;;5019167;28;22051;-85
2021/05/19 08:22:20;;;;;;;4.03;3.57;;;16.90;1.00;;;;;;5006322;28;20458;-83
2021/05/19 08:24:46;;;;;;;3.93;3.53;;;17.10;1.00;;;;;;5020947;28;20842;-86
2021/05/19 08:27:14;;;;;;;4.47;4.07;;;17.20;1.00;;;;;;5021735;28;20507;-84
2021/05/19 08:29:40;;;;;;;3.23;3.03;;;17.20;1.00;;;;;;5028185;28;20570;-85
2021/05/19 08:32:08;;;;;;;4.43;3.50;;;17.10;1.00;;;;;;5023501;28;20423;-83
2021/05/19 08:34:34;;;;;;;3.70;3.30;;;17.20;1.00;;;;;;5022347;28;20471;-84
2021/05/19 08:37:01;;;;;;;3.47;2.93;;;17.40;1.00;;;;;;5017631;28;20518;-85
2021/05/19 08:39:27;;;;;;;4.60;4.00;;;17.50;1.00;;;;;;5015707;28;20461;-84
2021/05/19 08:41:54;;;;;;;3.33;3.03;;;17.60;1.00;;;;;;5003000;28;20475;-83
2021/05/19 08:44:50;;;;;;;3.27;2.93;;;17.70;1.00;;;;;;5018908;28;20468;-85
2021/05/19 08:47:29;;;;;;;4.60;3.70;;;17.60;1.00;;;;;;4995869;28;20452;-86
2021/05/19 08:49:55;;;;;;;3.33;3.03;;;17.60;1.00;;;;;;5019738;28;20492;-83
2021/05/19 08:52:22;;;;;;;5.03;3.30;;;17.70;1.00;;;;;;5014998;28;20444;-85
2021/05/19 08:54:49;;;;;;;3.73;3.43;;;17.80;1.00;;;;;;5015945;28;20491;-84
2021/05/19 08:57:17;;;;;;;3.50;3.17;;;17.90;1.00;;;;;;5016021;28;20516;-84
2021/05/19 08:59:43;;;;;;;4.27;3.37;;;18.10;1.00;;;;;;5020646;28;20411;-84
2021/05/19 09:02:11;;;;;;;3.93;3.37;;;18.00;1.00;;;;;;5013543;28;21135;-82
2021/05/19 09:04:41;;;;;;;3.30;2.90;;;18.00;1.00;;;;;;5017575;28;20417;-81
2021/05/19 09:07:10;;;;;;;4.00;3.60;;;17.90;1.00;;;;;;5011500;28;20519;-80
2021/05/19 09:09:38;;;;;;;3.13;2.90;;;18.00;1.00;;;;;;5009248;28;20790;-79
2021/05/19 09:12:08;;;;;;;3.67;3.37;;;18.40;1.00;;;;;;5006999;28;20444;-81
2021/05/19 09:14:36;;;;;;;7.23;3.70;;;18.70;1.00;;;;;;5005914;28;20441;-80
2021/05/19 09:17:19;;;;;;;4.87;4.47;;;18.70;1.00;;;;;;5010182;28;20554;-80
2021/05/19 09:19:47;;;;;;;4.73;4.17;;;18.70;1.00;;;;;;5012852;28;20435;-81
2021/05/19 09:22:18;;;;;;;3.83;3.53;;;18.70;1.00;;;;;;5012037;28;20479;-81
2021/05/19 09:24:45;;;;;;;5.73;4.43;;;18.90;1.00;;;;;;5012693;28;20464;-81
2021/05/19 09:27:11;;;;;;;3.70;3.40;;;19.40;1.00;;;;;;5017443;28;20445;-82
2021/05/19 09:29:39;;;;;;;4.00;3.50;;;19.60;1.00;;;;;;5021863;28;20476;-82
2021/05/19 09:32:07;;;;;;;4.03;3.07;;;19.20;1.00;;;;;;5025488;28;20486;-84
2021/05/19 09:34:37;;;;;;;3.27;3.07;;;19.90;1.00;;;;;;5020373;28;20456;-81
2021/05/19 09:37:24;;;;;;;4.17;2.60;;;21.50;1.00;;;;;;5018788;28;20430;-81
2021/05/19 09:39:53;;;;;;;3.37;3.07;;;22.00;1.00;;;;;;5011193;28;20485;-80
2021/05/19 09:42:21;;;;;;;3.77;3.20;;;21.90;1.00;;;;;;5011548;28;20468;-81
2021/05/19 09:44:49;;;;;;;3.77;3.10;;;22.50;1.00;;;;;;5012946;28;20529;-81
2021/05/19 09:47:36;;;;;;;3.07;2.70;;;21.70;1.00;;;;;;5023669;28;20462;-81
2021/05/19 09:50:04;;;;;;;3.03;2.73;;;21.80;1.00;;;;;;5007697;28;20448;-82
2021/05/19 09:52:31;;;;;;;2.90;2.20;;;23.10;1.00;;;;;;5013423;28;20528;-83
2021/05/19 09:55:04;;;;;;;3.60;3.30;;;24.20;1.00;;;;;;5014545;28;20620;-82
2021/05/19 09:57:41;;;;;;;3.77;2.53;;;24.80;1.00;;;;;;5016672;28;20446;-81
2021/05/19 10:00:09;;;;;;;2.73;2.47;;;25.60;1.00;;;;;;5012767;28;20519;-80
2021/05/19 10:02:36;;;;;;;2.87;2.57;;;25.50;1.00;;;;;;5017941;28;20448;-82
2021/05/19 10:05:10;;;;;;;2.70;2.50;;;24.10;1.00;;;;;;5008196;28;20478;-82
2021/05/19 10:07:37;;;;;;;2.97;2.77;;;22.50;1.00;;;;;;5016359;28;20461;-82
2021/05/19 10:10:03;;;;;;;2.80;2.60;;;22.60;1.00;;;;;;5014146;28;20468;-82
2021/05/19 10:12:31;;;;;;;4.30;2.80;;;24.10;1.00;;;;;;5021368;28;21150;-86
2021/05/19 10:15:02;;;;;;;5.63;2.90;;;24.70;1.00;;;;;;5016451;28;20774;-84
2021/05/19 10:17:28;;;;;;;2.90;2.60;;;24.90;1.00;;;;;;5018697;28;20588;-85
2021/05/19 10:19:58;;;;;;;3.30;3.00;;;23.70;1.00;;;;;;5020373;28;21041;-85
2021/05/19 10:22:28;;;;;;;2.70;2.50;;;23.40;1.00;;;;;;5018741;28;21331;-84
2021/05/19 10:25:02;;;;;;;5.73;3.53;;;24.80;1.00;;;;;;5018023;28;20586;-81
2021/05/19 10:27:47;;;;;;;2.77;2.57;;;25.00;1.00;;;;;;5022159;28;20523;-82
2021/05/19 10:30:33;;;;;;;3.67;2.40;;;23.70;1.00;;;;;;5013743;28;20584;-84
2021/05/19 10:32:59;;;;;;;2.50;2.30;;;24.00;1.00;;;;;;5018188;28;20448;-82
2021/05/19 10:35:38;;;;;;;2.50;2.00;;;24.20;1.00;;;;;;5016581;28;20572;-83
2021/05/19 10:38:19;;;;;;;4.50;2.47;;;25.20;1.00;;;;;;5026536;28;20489;-82
2021/05/19 10:40:52;;;;;;;2.30;2.10;;;26.50;1.00;;;;;;5034926;28;20482;-84
2021/05/19 10:43:19;;;;;;;3.87;2.03;;;27.10;1.00;;;;;;5049116;28;20644;-81
2021/05/19 10:45:56;;;;;;;2.20;1.53;;;26.50;1.00;;;;;;5042305;28;20497;-85
2021/05/19 10:48:34;;;;;;;7.47;3.00;;;26.50;1.00;;;;;;5044298;28;20418;-83
2021/05/19 10:51:35;;;;;;;1.70;1.60;;;27.00;1.00;;;;;;5044362;28;20470;-86
2021/05/19 11:00:06;;;;;;;3.80;2.20;;;29.40;1.00;;;;;;5003491;28;20436;-85
2021/05/19 11:03:10;;;;;;;1.90;1.63;;;29.80;1.00;;;;;;5018556;28;20573;-84
2021/05/19 11:05:38;;;;;;;5.20;3.13;;;28.60;1.00;;;;;;5013761;28;20464;-84
2021/05/19 11:08:24;;;;;;;2.30;2.10;;;27.70;1.00;;;;;;5010823;28;20477;-84
2021/05/19 11:10:53;;;;;;;2.60;2.40;;;27.80;1.00;;;;;;5022822;28;20459;-84
2021/05/19 11:13:23;;;;;;;8.03;3.03;;;28.30;1.00;;;;;;5013778;28;20458;-86
2021/05/19 11:15:58;;;;;;;2.07;1.90;;;28.40;1.00;;;;;;5000901;28;20612;-84
2021/05/19 11:18:44;;;;;;;5.67;2.83;;;29.20;1.00;;;;;;5013426;28;20479;-84
2021/05/19 11:21:15;;;;;;;1.97;1.77;;;30.30;1.00;;;;;;5013240;28;20609;-85
2021/05/19 11:23:42;;;;;;;1.73;1.50;;;31.20;1.00;;;;;;5010627;28;20440;-83
2021/05/19 11:26:09;;;;;;;2.90;1.90;;;30.20;1.00;;;;;;5012534;28;20444;-83
2021/05/19 11:28:36;;;;;;;5.33;4.83;;;28.30;1.00;;;;;;4997139;28;20229;-82
2021/05/19 11:31:14;;;;;;;2.23;2.03;;;27.40;1.00;;;;;;5010099;28;21377;-83
2021/05/19 11:34:01;;;;;;;3.87;1.77;;;26.10;1.00;;;;;;5013708;28;20488;-83
2021/05/19 11:36:29;;;;;;;3.80;2.67;;;24.60;1.00;;;;;;5011034;28;20531;-83
2021/05/19 11:38:56;;;;;;;2.97;1.83;;;24.70;1.00;;;;;;5015680;28;20460;-89
2021/05/19 11:41:23;;;;;;;1.77;1.57;;;26.20;1.00;;;;;;5024932;28;20421;-88
2021/05/19 11:43:50;;;;;;;1.80;1.70;;;26.40;1.00;;;;;;5015339;28;20498;-84
2021/05/19 11:46:16;;;;;;;2.53;1.67;;;27.20;1.00;;;;;;5017970;28;20497;-82
2021/05/19 11:48:48;;;;;;;2.30;1.67;;;28.50;1.00;;;;;;5007099;28;20460;-84
2021/05/19 11:51:19;;;;;;;1.50;1.40;;;29.20;1.00;;;;;;5014457;28;20590;-81
2021/05/19 11:53:56;;;;;;;1.50;1.30;;;30.00;1.00;;;;;;5016811;28;20462;-82
2021/05/19 11:56:23;;;;;;;1.80;1.60;;;30.70;1.00;;;;;;5018911;28;20479;-83
2021/05/19 11:58:50;;;;;;;2.00;1.77;;;30.20;1.00;;;;;;5017401;28;20464;-86
2021/05/19 12:01:18;;;;;;;1.73;1.30;;;30.00;1.00;;;;;;5027599;28;21318;-88
2021/05/19 12:03:47;;;;;;;2.30;1.70;;;28.50;1.00;;;;;;5024591;28;20510;-85
2021/05/19 12:06:15;;;;;;;1.90;1.80;;;26.80;1.00;;;;;;5021823;28;20427;-86
2021/05/19 12:08:45;;;;;;;2.47;1.60;;;25.60;1.00;;;;;;5023798;28;20515;-86
2021/05/19 12:11:14;;;;;;;2.10;1.50;;;25.60;1.00;;;;;;5004455;28;20439;-87
2021/05/19 12:13:46;;;;;;;1.57;1.47;;;25.00;1.00;;;;;;5001276;28;20453;-89
2021/05/19 12:16:32;;;;;;;1.93;1.33;;;25.70;1.00;;;;;;5020320;28;20444;-83
2021/05/19 12:19:00;;;;;;;2.30;1.70;;;27.40;1.00;;;;;;5022690;28;20443;-84
2021/05/19 12:21:28;;;;;;;2.43;1.93;;;28.60;1.00;;;;;;5019015;28;20455;-81
2021/05/19 12:23:56;;;;;;;1.67;1.40;;;28.80;1.00;;;;;;5014620;28;20483;-83
2021/05/19 12:26:25;;;;;;;2.93;2.57;;;28.70;1.00;;;;;;5014009;28;20450;-83
2021/05/19 12:28:52;;;;;;;4.00;2.40;;;27.90;1.00;;;;;;5015317;28;21192;-79
2021/05/19 12:31:26;;;;;;;1.87;1.77;;;26.70;1.00;;;;;;5013101;28;21257;-83
2021/05/19 12:33:53;;;;;;;3.63;2.80;;;25.70;1.00;;;;;;5015430;28;21445;-82
2021/05/19 12:36:24;;;;;;;2.60;1.80;;;24.80;1.00;;;;;;5005956;28;20528;-81
2021/05/19 12:38:51;;;;;;;3.40;1.80;;;24.00;1.00;;;;;;5009496;28;20465;-80
2021/05/19 12:41:41;;;;;;;2.10;1.90;;;25.10;1.00;;;;;;5011679;28;20512;-83
2021/05/19 12:44:07;;;;;;;2.87;2.10;;;24.90;1.00;;;;;;5012095;28;20465;-81
2021/05/19 12:46:35;;;;;;;3.77;2.70;;;24.20;1.00;;;;;;5015793;28;20434;-83
2021/05/19 12:49:11;;;;;;;2.63;1.33;;;24.80;1.00;;;;;;5020504;28;20520;-82
2021/05/19 12:51:51;;;;;;;2.13;1.73;;;26.80;1.00;;;;;;5014871;28;20457;-82
2021/05/19 12:54:23;;;;;;;3.50;2.40;;;27.60;1.00;;;;;;5017886;28;20456;-81
2021/05/19 12:57:05;;;;;;;8.37;3.87;;;27.40;1.00;;;;;;5000393;28;20481;-81
2021/05/19 12:59:49;;;;;;;1.77;1.67;;;28.30;1.00;;;;;;5019443;28;20498;-80
2021/05/19 13:02:17;;;;;;;2.30;2.10;;;28.60;1.00;;;;;;4996000;28;20460;-82
2021/05/19 13:04:46;;;;;;;3.93;1.70;;;27.30;1.00;;;;;;5013188;28;20433;-86
2021/05/19 13:07:15;;;;;;;4.77;2.50;;;26.40;1.00;;;;;;5026448;28;20429;-87